sensor_id;sensor_type;location;lat;lon;timestamp;temperature;humidity
3602;DHT22;1815;50.950;6.920;2023-04-25T00:01:31;9.80;99.90
3602;DHT22;1815;50.950;6.920;2023-04-25T00:04:02;9.80;99.90
3602;DHT22;1815;50.950;6.920;2023-04-25T00:06:28;9.80;99.90
3602;DHT22;1815;50.950;6.920;2023-04-25T00:08:55;9.80;99.90
3602;DHT22;1815;50.950;6.920;2023-04-25T00:11:22;9.80;99.90
3602;DHT22;1815;50.950;6.920;2023-04-25T00:13:48;9.80;99.90
3602;DHT22;1815;50.950;6.920;2023-04-25T00:16:15;9.90;99.90
3602;DHT22;1815;50.950;6.920;2023-04-25T00:18:42;9.80;99.90
3602;DHT22;1815;50.950;6.920;2023-04-25T00:21:08;9.90;99.90
3602;DHT22;1815;50.950;6.920;2023-04-25T00:23:34;9.80;99.90
3602;DHT22;1815;50.950;6.920;2023-04-25T00:26:02;9.80;99.90
3602;DHT22;1815;50.950;6.920;2023-04-25T00:28:28;9.80;99.90
3602;DHT22;1815;50.950;6.920;2023-04-25T00:30:53;9.70;99.90
3602;DHT22;1815;50.950;6.920;2023-04-25T00:33:19;9.70;99.90
3602;DHT22;1815;50.950;6.920;2023-04-25T00:35:45;9.70;99.90
3602;DHT22;1815;50.950;6.920;2023-04-25T00:38:10;9.60;99.90
3602;DHT22;1815;50.950;6.920;2023-04-25T00:40:36;9.60;99.90
3602;DHT22;1815;50.950;6.920;2023-04-25T00:43:02;9.50;99.90
3602;DHT22;1815;50.950;6.920;2023-04-25T00:45:28;9.50;99.90
3602;DHT22;1815;50.950;6.920;2023-04-25T00:47:58;9.40;99.90
3602;DHT22;1815;50.950;6.920;2023-04-25T00:50:24;9.40;99.90
3602;DHT22;1815;50.950;6.920;2023-04-25T00:52:50;9.30;99.90
3602;DHT22;1815;50.950;6.920;2023-04-25T00:55:16;9.30;99.90
3602;DHT22;1815;50.950;6.920;2023-04-25T00:57:42;9.20;99.90
3602;DHT22;1815;50.950;6.920;2023-04-25T01:00:09;9.20;99.90
3602;DHT22;1815;50.950;6.920;2023-04-25T01:02:36;9.10;99.90
3602;DHT22;1815;50.950;6.920;2023-04-25T01:05:23;9.10;99.90
3602;DHT22;1815;50.950;6.920;2023-04-25T01:07:49;9.00;99.90
3602;DHT22;1815;50.950;6.920;2023-04-25T01:10:15;9.00;99.90
3602;DHT22;1815;50.950;6.920;2023-04-25T01:12:41;8.90;99.90
3602;DHT22;1815;50.950;6.920;2023-04-25T01:15:07;8.90;99.90
3602;DHT22;1815;50.950;6.920;2023-04-25T01:17:34;8.80;99.90
3602;DHT22;1815;50.950;6.920;2023-04-25T01:20:03;8.80;99.90
3602;DHT22;1815;50.950;6.920;2023-04-25T01:22:30;8.80;99.90
3602;DHT22;1815;50.950;6.920;2023-04-25T01:24:56;8.70;99.90
3602;DHT22;1815;50.950;6.920;2023-04-25T01:27:22;8.70;99.90
3602;DHT22;1815;50.950;6.920;2023-04-25T01:29:49;8.60;99.90
3602;DHT22;1815;50.950;6.920;2023-04-25T01:32:16;8.60;99.90
3602;DHT22;1815;50.950;6.920;2023-04-25T01:34:42;8.60;99.90
3602;DHT22;1815;50.950;6.920;2023-04-25T01:37:07;8.50;99.90
3602;DHT22;1815;50.950;6.920;2023-04-25T01:39:33;8.50;99.90
3602;DHT22;1815;50.950;6.920;2023-04-25T01:41:59;8.50;99.90
3602;DHT22;1815;50.950;6.920;2023-04-25T01:44:25;8.40;99.90
3602;DHT22;1815;50.950;6.920;2023-04-25T01:46:52;8.40;99.90
3602;DHT22;1815;50.950;6.920;2023-04-25T01:49:17;8.40;99.90
3602;DHT22;1815;50.950;6.920;2023-04-25T01:51:44;8.40;99.90
3602;DHT22;1815;50.950;6.920;2023-04-25T01:54:10;8.40;99.90
3602;DHT22;1815;50.950;6.920;2023-04-25T01:56:37;8.30;99.90
3602;DHT22;1815;50.950;6.920;2023-04-25T01:59:05;8.30;99.90
3602;DHT22;1815;50.950;6.920;2023-04-25T02:01:50;8.30;99.90
3602;DHT22;1815;50.950;6.920;2023-04-25T02:04:23;8.30;99.90
3602;DHT22;1815;50.950;6.920;2023-04-25T02:06:50;8.20;99.90
3602;DHT22;1815;50.950;6.920;2023-04-25T02:09:16;8.20;99.90
3602;DHT22;1815;50.950;6.920;2023-04-25T02:11:50;8.20;99.90
3602;DHT22;1815;50.950;6.920;2023-04-25T02:14:26;8.20;99.90
3602;DHT22;1815;50.950;6.920;2023-04-25T02:17:02;8.20;99.90
3602;DHT22;1815;50.950;6.920;2023-04-25T02:19:30;8.20;99.90
3602;DHT22;1815;50.950;6.920;2023-04-25T02:21:55;8.10;99.90
3602;DHT22;1815;50.950;6.920;2023-04-25T02:24:22;8.10;99.90
3602;DHT22;1815;50.950;6.920;2023-04-25T02:26:48;8.10;99.90
3602;DHT22;1815;50.950;6.920;2023-04-25T02:29:15;8.10;99.90
3602;DHT22;1815;50.950;6.920;2023-04-25T02:31:42;8.20;99.90
3602;DHT22;1815;50.950;6.920;2023-04-25T02:34:07;8.20;99.90
3602;DHT22;1815;50.950;6.920;2023-04-25T02:36:35;8.30;99.90
3602;DHT22;1815;50.950;6.920;2023-04-25T02:39:01;8.30;99.90
3602;DHT22;1815;50.950;6.920;2023-04-25T02:41:28;8.40;99.90
3602;DHT22;1815;50.950;6.920;2023-04-25T02:43:54;8.40;99.90
3602;DHT22;1815;50.950;6.920;2023-04-25T02:46:20;8.40;99.90
3602;DHT22;1815;50.950;6.920;2023-04-25T02:48:46;8.50;99.90
3602;DHT22;1815;50.950;6.920;2023-04-25T02:51:12;8.50;99.90
3602;DHT22;1815;50.950;6.920;2023-04-25T02:53:38;8.50;99.90
3602;DHT22;1815;50.950;6.920;2023-04-25T02:56:03;8.60;99.90
3602;DHT22;1815;50.950;6.920;2023-04-25T02:58:30;8.60;99.90
3602;DHT22;1815;50.950;6.920;2023-04-25T03:00:56;8.70;99.90
3602;DHT22;1815;50.950;6.920;2023-04-25T03:03:22;8.70;99.90
3602;DHT22;1815;50.950;6.920;2023-04-25T03:05:49;8.70;99.90
3602;DHT22;1815;50.950;6.920;2023-04-25T03:08:18;8.80;99.90
3602;DHT22;1815;50.950;6.920;2023-04-25T03:10:45;8.80;99.90
3602;DHT22;1815;50.950;6.920;2023-04-25T03:13:11;8.80;99.90
3602;DHT22;1815;50.950;6.920;2023-04-25T03:15:38;8.90;99.90
3602;DHT22;1815;50.950;6.920;2023-04-25T03:18:06;8.90;99.90
3602;DHT22;1815;50.950;6.920;2023-04-25T03:20:32;8.90;99.90
3602;DHT22;1815;50.950;6.920;2023-04-25T03:22:58;8.90;99.90
3602;DHT22;1815;50.950;6.920;2023-04-25T03:25:23;8.90;99.90
3602;DHT22;1815;50.950;6.920;2023-04-25T03:27:49;8.90;99.90
3602;DHT22;1815;50.950;6.920;2023-04-25T03:30:15;9.00;99.90
3602;DHT22;1815;50.950;6.920;2023-04-25T03:32:42;9.00;99.90
3602;DHT22;1815;50.950;6.920;2023-04-25T03:35:08;9.00;99.90
3602;DHT22;1815;50.950;6.920;2023-04-25T03:37:34;9.00;99.90
3602;DHT22;1815;50.950;6.920;2023-04-25T03:40:00;9.00;99.90
3602;DHT22;1815;50.950;6.920;2023-04-25T03:42:42;9.10;99.90
3602;DHT22;1815;50.950;6.920;2023-04-25T03:45:08;9.10;99.90
3602;DHT22;1815;50.950;6.920;2023-04-25T03:47:34;9.10;99.90
3602;DHT22;1815;50.950;6.920;2023-04-25T03:50:00;9.10;99.90
3602;DHT22;1815;50.950;6.920;2023-04-25T03:52:28;9.10;99.90
3602;DHT22;1815;50.950;6.920;2023-04-25T03:54:53;9.20;99.90
3602;DHT22;1815;50.950;6.920;2023-04-25T03:57:21;9.20;99.90
3602;DHT22;1815;50.950;6.920;2023-04-25T03:59:47;9.20;99.90
3602;DHT22;1815;50.950;6.920;2023-04-25T04:02:14;9.20;99.90
3602;DHT22;1815;50.950;6.920;2023-04-25T04:04:40;9.20;99.90
3602;DHT22;1815;50.950;6.920;2023-04-25T04:07:06;9.20;99.90
3602;DHT22;1815;50.950;6.920;2023-04-25T04:09:36;9.20;99.90
3602;DHT22;1815;50.950;6.920;2023-04-25T04:12:07;9.30;99.90
3602;DHT22;1815;50.950;6.920;2023-04-25T04:14:33;9.30;99.90
3602;DHT22;1815;50.950;6.920;2023-04-25T04:16:59;9.30;99.90
3602;DHT22;1815;50.950;6.920;2023-04-25T04:19:26;9.30;99.90
3602;DHT22;1815;50.950;6.920;2023-04-25T04:22:02;9.30;99.90
3602;DHT22;1815;50.950;6.920;2023-04-25T04:24:28;9.30;99.90
3602;DHT22;1815;50.950;6.920;2023-04-25T04:27:03;9.30;99.90
3602;DHT22;1815;50.950;6.920;2023-04-25T04:29:35;9.40;99.90
3602;DHT22;1815;50.950;6.920;2023-04-25T04:32:15;9.40;99.90
3602;DHT22;1815;50.950;6.920;2023-04-25T04:34:41;9.40;99.90
3602;DHT22;1815;50.950;6.920;2023-04-25T04:37:08;9.40;99.90
3602;DHT22;1815;50.950;6.920;2023-04-25T04:39:35;9.40;99.90
3602;DHT22;1815;50.950;6.920;2023-04-25T04:42:07;9.40;99.90
3602;DHT22;1815;50.950;6.920;2023-04-25T04:45:03;9.40;99.90
3602;DHT22;1815;50.950;6.920;2023-04-25T04:47:58;9.50;99.90
3602;DHT22;1815;50.950;6.920;2023-04-25T04:50:43;9.50;99.90
3602;DHT22;1815;50.950;6.920;2023-04-25T04:53:16;9.50;99.90
3602;DHT22;1815;50.950;6.920;2023-04-25T04:56:13;9.50;99.90
3602;DHT22;1815;50.950;6.920;2023-04-25T04:58:44;9.50;99.90
3602;DHT22;1815;50.950;6.920;2023-04-25T05:01:22;9.60;99.90
3602;DHT22;1815;50.950;6.920;2023-04-25T05:04:03;9.60;99.90
3602;DHT22;1815;50.950;6.920;2023-04-25T05:06:47;9.60;99.90
3602;DHT22;1815;50.950;6.920;2023-04-25T05:09:14;9.60;99.90
3602;DHT22;1815;50.950;6.920;2023-04-25T05:12:05;9.70;99.90
3602;DHT22;1815;50.950;6.920;2023-04-25T05:14:57;9.70;99.90
3602;DHT22;1815;50.950;6.920;2023-04-25T05:17:53;9.80;99.90
3602;DHT22;1815;50.950;6.920;2023-04-25T05:20:37;9.80;99.90
3602;DHT22;1815;50.950;6.920;2023-04-25T05:23:21;9.80;99.90
3602;DHT22;1815;50.950;6.920;2023-04-25T05:25:59;9.90;99.90
3602;DHT22;1815;50.950;6.920;2023-04-25T05:28:46;10.00;99.90
3602;DHT22;1815;50.950;6.920;2023-04-25T05:31:28;10.00;99.90
3602;DHT22;1815;50.950;6.920;2023-04-25T05:34:00;10.10;99.90
3602;DHT22;1815;50.950;6.920;2023-04-25T05:36:38;10.10;99.90
3602;DHT22;1815;50.950;6.920;2023-04-25T05:39:04;10.20;99.90
3602;DHT22;1815;50.950;6.920;2023-04-25T05:41:48;10.30;99.90
3602;DHT22;1815;50.950;6.920;2023-04-25T05:44:38;10.40;99.90
3602;DHT22;1815;50.950;6.920;2023-04-25T05:47:33;10.50;99.90
3602;DHT22;1815;50.950;6.920;2023-04-25T05:50:19;10.60;99.90
3602;DHT22;1815;50.950;6.920;2023-04-25T05:52:53;10.80;99.90
3602;DHT22;1815;50.950;6.920;2023-04-25T05:55:24;10.90;99.90
3602;DHT22;1815;50.950;6.920;2023-04-25T05:57:50;11.00;99.90
3602;DHT22;1815;50.950;6.920;2023-04-25T06:00:17;11.20;99.90
3602;DHT22;1815;50.950;6.920;2023-04-25T06:02:48;11.30;99.90
3602;DHT22;1815;50.950;6.920;2023-04-25T06:05:14;11.40;99.90
3602;DHT22;1815;50.950;6.920;2023-04-25T06:07:40;11.50;99.90
3602;DHT22;1815;50.950;6.920;2023-04-25T06:10:06;11.50;99.90
3602;DHT22;1815;50.950;6.920;2023-04-25T06:12:33;11.70;99.90
3602;DHT22;1815;50.950;6.920;2023-04-25T06:15:00;11.70;99.90
3602;DHT22;1815;50.950;6.920;2023-04-25T06:17:26;11.80;99.90
3602;DHT22;1815;50.950;6.920;2023-04-25T06:19:55;11.90;99.90
3602;DHT22;1815;50.950;6.920;2023-04-25T06:22:20;12.10;99.90
3602;DHT22;1815;50.950;6.920;2023-04-25T06:24:46;12.40;99.90
3602;DHT22;1815;50.950;6.920;2023-04-25T06:27:12;12.70;99.90
3602;DHT22;1815;50.950;6.920;2023-04-25T06:29:38;12.80;99.90
3602;DHT22;1815;50.950;6.920;2023-04-25T06:32:04;12.90;99.90
3602;DHT22;1815;50.950;6.920;2023-04-25T06:34:30;12.90;99.90
3602;DHT22;1815;50.950;6.920;2023-04-25T06:36:57;12.90;99.90
3602;DHT22;1815;50.950;6.920;2023-04-25T06:39:22;12.90;99.90
3602;DHT22;1815;50.950;6.920;2023-04-25T06:41:50;13.00;99.90
3602;DHT22;1815;50.950;6.920;2023-04-25T06:44:39;13.10;99.90
3602;DHT22;1815;50.950;6.920;2023-04-25T06:47:07;13.30;99.90
3602;DHT22;1815;50.950;6.920;2023-04-25T06:49:33;13.40;99.90
3602;DHT22;1815;50.950;6.920;2023-04-25T06:51:59;13.80;99.90
3602;DHT22;1815;50.950;6.920;2023-04-25T06:54:25;14.50;99.90
3602;DHT22;1815;50.950;6.920;2023-04-25T06:57:00;15.30;99.90
3602;DHT22;1815;50.950;6.920;2023-04-25T06:59:27;16.00;99.90
3602;DHT22;1815;50.950;6.920;2023-04-25T07:01:53;16.80;99.90
3602;DHT22;1815;50.950;6.920;2023-04-25T07:04:24;17.20;99.90
3602;DHT22;1815;50.950;6.920;2023-04-25T07:06:54;17.50;99.90
3602;DHT22;1815;50.950;6.920;2023-04-25T07:09:26;17.40;99.90
3602;DHT22;1815;50.950;6.920;2023-04-25T07:11:53;17.40;99.90
3602;DHT22;1815;50.950;6.920;2023-04-25T07:14:19;17.60;99.90
3602;DHT22;1815;50.950;6.920;2023-04-25T07:16:45;18.00;99.90
3602;DHT22;1815;50.950;6.920;2023-04-25T07:19:12;18.20;99.90
3602;DHT22;1815;50.950;6.920;2023-04-25T07:21:38;18.30;99.90
3602;DHT22;1815;50.950;6.920;2023-04-25T07:24:05;18.30;99.90
3602;DHT22;1815;50.950;6.920;2023-04-25T07:26:35;18.30;99.90
3602;DHT22;1815;50.950;6.920;2023-04-25T07:29:14;18.30;99.90
3602;DHT22;1815;50.950;6.920;2023-04-25T07:31:40;18.30;99.90
3602;DHT22;1815;50.950;6.920;2023-04-25T07:34:06;18.20;99.90
3602;DHT22;1815;50.950;6.920;2023-04-25T07:36:32;18.10;99.90
3602;DHT22;1815;50.950;6.920;2023-04-25T07:38:57;18.10;99.90
3602;DHT22;1815;50.950;6.920;2023-04-25T07:41:24;18.10;99.90
3602;DHT22;1815;50.950;6.920;2023-04-25T07:43:49;18.20;99.90
3602;DHT22;1815;50.950;6.920;2023-04-25T07:46:16;18.30;99.90
3602;DHT22;1815;50.950;6.920;2023-04-25T07:48:42;18.20;99.90
3602;DHT22;1815;50.950;6.920;2023-04-25T07:51:08;18.10;99.90
3602;DHT22;1815;50.950;6.920;2023-04-25T07:53:36;18.00;99.90
3602;DHT22;1815;50.950;6.920;2023-04-25T07:56:06;18.10;99.90
3602;DHT22;1815;50.950;6.920;2023-04-25T07:58:35;18.20;99.90
3602;DHT22;1815;50.950;6.920;2023-04-25T08:01:03;18.40;99.90
3602;DHT22;1815;50.950;6.920;2023-04-25T08:03:42;18.70;99.90
3602;DHT22;1815;50.950;6.920;2023-04-25T08:06:15;19.00;99.90
3602;DHT22;1815;50.950;6.920;2023-04-25T08:08:54;19.40;99.90
3602;DHT22;1815;50.950;6.920;2023-04-25T08:11:23;19.70;99.90
3602;DHT22;1815;50.950;6.920;2023-04-25T08:13:49;19.90;99.90
3602;DHT22;1815;50.950;6.920;2023-04-25T08:16:15;20.00;99.90
3602;DHT22;1815;50.950;6.920;2023-04-25T08:18:41;20.10;99.90
3602;DHT22;1815;50.950;6.920;2023-04-25T08:21:08;20.10;99.90
3602;DHT22;1815;50.950;6.920;2023-04-25T08:23:37;20.10;99.90
3602;DHT22;1815;50.950;6.920;2023-04-25T08:26:10;20.10;99.90
3602;DHT22;1815;50.950;6.920;2023-04-25T08:28:37;20.10;99.90
3602;DHT22;1815;50.950;6.920;2023-04-25T08:31:04;20.20;99.90
3602;DHT22;1815;50.950;6.920;2023-04-25T08:33:37;20.30;99.40
3602;DHT22;1815;50.950;6.920;2023-04-25T08:36:19;20.60;99.40
3602;DHT22;1815;50.950;6.920;2023-04-25T08:38:45;21.00;99.90
3602;DHT22;1815;50.950;6.920;2023-04-25T08:41:13;21.40;99.40
3602;DHT22;1815;50.950;6.920;2023-04-25T08:43:42;21.70;98.60
3602;DHT22;1815;50.950;6.920;2023-04-25T08:46:09;22.00;96.70
3602;DHT22;1815;50.950;6.920;2023-04-25T08:48:53;22.00;96.20
3602;DHT22;1815;50.950;6.920;2023-04-25T08:51:22;22.00;95.30
3602;DHT22;1815;50.950;6.920;2023-04-25T08:53:52;21.90;93.60
3602;DHT22;1815;50.950;6.920;2023-04-25T08:56:19;21.80;92.90
3602;DHT22;1815;50.950;6.920;2023-04-25T08:58:48;21.50;92.80
3602;DHT22;1815;50.950;6.920;2023-04-25T09:01:17;21.30;92.50
3602;DHT22;1815;50.950;6.920;2023-04-25T09:03:49;21.00;91.50
3602;DHT22;1815;50.950;6.920;2023-04-25T09:06:14;20.60;90.20
3602;DHT22;1815;50.950;6.920;2023-04-25T09:08:42;20.10;89.90
3602;DHT22;1815;50.950;6.920;2023-04-25T09:11:08;19.60;87.50
3602;DHT22;1815;50.950;6.920;2023-04-25T09:13:33;19.10;85.80
3602;DHT22;1815;50.950;6.920;2023-04-25T09:16:19;18.60;87.80
3602;DHT22;1815;50.950;6.920;2023-04-25T09:19:33;18.10;87.80
3602;DHT22;1815;50.950;6.920;2023-04-25T09:22:02;17.60;86.40
3602;DHT22;1815;50.950;6.920;2023-04-25T09:27:06;16.90;88.60
3602;DHT22;1815;50.950;6.920;2023-04-25T09:29:34;16.60;89.00
3602;DHT22;1815;50.950;6.920;2023-04-25T09:32:19;16.40;89.50
3602;DHT22;1815;50.950;6.920;2023-04-25T09:34:52;16.20;89.20
3602;DHT22;1815;50.950;6.920;2023-04-25T09:37:24;16.20;90.50
3602;DHT22;1815;50.950;6.920;2023-04-25T09:40:13;16.20;90.90
3602;DHT22;1815;50.950;6.920;2023-04-25T09:42:50;16.20;90.50
3602;DHT22;1815;50.950;6.920;2023-04-25T09:45:17;16.10;91.00
3602;DHT22;1815;50.950;6.920;2023-04-25T09:47:43;16.00;90.60
3602;DHT22;1815;50.950;6.920;2023-04-25T09:50:16;16.00;90.50
3602;DHT22;1815;50.950;6.920;2023-04-25T09:52:45;15.80;90.00
3602;DHT22;1815;50.950;6.920;2023-04-25T09:55:16;15.70;90.70
3602;DHT22;1815;50.950;6.920;2023-04-25T09:57:46;15.60;90.60
3602;DHT22;1815;50.950;6.920;2023-04-25T10:00:15;15.70;91.40
3602;DHT22;1815;50.950;6.920;2023-04-25T10:02:46;15.70;91.50
3602;DHT22;1815;50.950;6.920;2023-04-25T10:05:35;15.70;91.10
3602;DHT22;1815;50.950;6.920;2023-04-25T10:08:03;15.70;91.30
3602;DHT22;1815;50.950;6.920;2023-04-25T10:10:32;15.60;91.10
3602;DHT22;1815;50.950;6.920;2023-04-25T10:13:03;15.50;90.90
3602;DHT22;1815;50.950;6.920;2023-04-25T10:15:29;15.30;90.40
3602;DHT22;1815;50.950;6.920;2023-04-25T10:17:56;15.10;90.50
3602;DHT22;1815;50.950;6.920;2023-04-25T10:20:22;15.00;90.60
3602;DHT22;1815;50.950;6.920;2023-04-25T10:22:50;14.80;90.40
3602;DHT22;1815;50.950;6.920;2023-04-25T10:25:19;14.70;90.70
3602;DHT22;1815;50.950;6.920;2023-04-25T10:27:45;14.60;90.90
3602;DHT22;1815;50.950;6.920;2023-04-25T10:30:14;14.60;91.30
3602;DHT22;1815;50.950;6.920;2023-04-25T10:32:42;14.50;91.20
3602;DHT22;1815;50.950;6.920;2023-04-25T10:35:16;14.60;91.80
3602;DHT22;1815;50.950;6.920;2023-04-25T10:40:30;14.90;92.90
3602;DHT22;1815;50.950;6.920;2023-04-25T10:43:33;15.40;95.10
3602;DHT22;1815;50.950;6.920;2023-04-25T10:46:02;15.90;93.60
3602;DHT22;1815;50.950;6.920;2023-04-25T10:48:31;16.40;94.20
3602;DHT22;1815;50.950;6.920;2023-04-25T10:51:10;16.70;93.40
3602;DHT22;1815;50.950;6.920;2023-04-25T10:53:37;16.70;91.30
3602;DHT22;1815;50.950;6.920;2023-04-25T10:56:17;16.70;91.90
3602;DHT22;1815;50.950;6.920;2023-04-25T10:58:44;16.50;88.00
3602;DHT22;1815;50.950;6.920;2023-04-25T11:01:12;16.30;90.00
3602;DHT22;1815;50.950;6.920;2023-04-25T11:03:41;16.00;89.00
3602;DHT22;1815;50.950;6.920;2023-04-25T11:06:22;15.80;89.10
3602;DHT22;1815;50.950;6.920;2023-04-25T11:08:50;15.50;87.10
3602;DHT22;1815;50.950;6.920;2023-04-25T11:11:17;15.30;88.90
3602;DHT22;1815;50.950;6.920;2023-04-25T11:13:44;15.10;88.90
3602;DHT22;1815;50.950;6.920;2023-04-25T11:16:10;15.00;88.80
3602;DHT22;1815;50.950;6.920;2023-04-25T11:18:36;14.90;88.90
3602;DHT22;1815;50.950;6.920;2023-04-25T11:21:04;14.80;88.80
3602;DHT22;1815;50.950;6.920;2023-04-25T11:23:30;14.70;89.30
3602;DHT22;1815;50.950;6.920;2023-04-25T11:25:56;14.80;90.20
3602;DHT22;1815;50.950;6.920;2023-04-25T11:28:22;14.80;90.40
3602;DHT22;1815;50.950;6.920;2023-04-25T11:30:49;14.90;90.30
3602;DHT22;1815;50.950;6.920;2023-04-25T11:33:16;15.00;90.10
3602;DHT22;1815;50.950;6.920;2023-04-25T11:35:42;15.10;90.60
3602;DHT22;1815;50.950;6.920;2023-04-25T11:38:08;15.30;90.90
3602;DHT22;1815;50.950;6.920;2023-04-25T11:40:35;15.50;91.70
3602;DHT22;1815;50.950;6.920;2023-04-25T11:43:02;15.90;93.40
3602;DHT22;1815;50.950;6.920;2023-04-25T11:45:28;16.30;93.00
3602;DHT22;1815;50.950;6.920;2023-04-25T11:47:56;16.60;91.30
3602;DHT22;1815;50.950;6.920;2023-04-25T11:50:21;16.90;90.70
3602;DHT22;1815;50.950;6.920;2023-04-25T11:52:48;17.00;86.10
3602;DHT22;1815;50.950;6.920;2023-04-25T11:55:19;17.10;88.20
3602;DHT22;1815;50.950;6.920;2023-04-25T11:57:47;17.20;87.40
3602;DHT22;1815;50.950;6.920;2023-04-25T12:00:15;17.40;88.50
3602;DHT22;1815;50.950;6.920;2023-04-25T12:02:45;17.60;90.10
3602;DHT22;1815;50.950;6.920;2023-04-25T12:05:12;18.00;90.00
3602;DHT22;1815;50.950;6.920;2023-04-25T12:07:38;18.30;90.20
3602;DHT22;1815;50.950;6.920;2023-04-25T12:10:06;18.50;87.30
3602;DHT22;1815;50.950;6.920;2023-04-25T12:12:36;18.70;87.50
3602;DHT22;1815;50.950;6.920;2023-04-25T12:15:24;18.90;87.60
3602;DHT22;1815;50.950;6.920;2023-04-25T12:17:52;19.10;78.10
3602;DHT22;1815;50.950;6.920;2023-04-25T12:20:20;19.40;80.50
3602;DHT22;1815;50.950;6.920;2023-04-25T12:22:47;19.50;78.20
3602;DHT22;1815;50.950;6.920;2023-04-25T12:25:37;19.60;75.90
3602;DHT22;1815;50.950;6.920;2023-04-25T12:28:17;19.50;74.60
3602;DHT22;1815;50.950;6.920;2023-04-25T12:31:07;19.60;69.90
3602;DHT22;1815;50.950;6.920;2023-04-25T12:33:37;19.40;65.80
3602;DHT22;1815;50.950;6.920;2023-04-25T12:36:04;19.40;67.10
3602;DHT22;1815;50.950;6.920;2023-04-25T12:38:39;19.10;66.20
3602;DHT22;1815;50.950;6.920;2023-04-25T12:41:06;18.80;65.10
3602;DHT22;1815;50.950;6.920;2023-04-25T12:43:31;18.60;65.50
3602;DHT22;1815;50.950;6.920;2023-04-25T12:45:57;18.30;65.10
3602;DHT22;1815;50.950;6.920;2023-04-25T12:48:23;18.00;64.60
3602;DHT22;1815;50.950;6.920;2023-04-25T12:50:50;17.90;66.50
3602;DHT22;1815;50.950;6.920;2023-04-25T12:53:22;17.70;65.60
3602;DHT22;1815;50.950;6.920;2023-04-25T12:55:48;17.50;65.30
3602;DHT22;1815;50.950;6.920;2023-04-25T12:58:15;17.30;66.30
3602;DHT22;1815;50.950;6.920;2023-04-25T13:00:41;17.10;65.70
3602;DHT22;1815;50.950;6.920;2023-04-25T13:03:08;16.90;64.20
3602;DHT22;1815;50.950;6.920;2023-04-25T13:05:34;16.70;65.90
3602;DHT22;1815;50.950;6.920;2023-04-25T13:08:00;16.60;66.50
3602;DHT22;1815;50.950;6.920;2023-04-25T13:10:26;16.40;66.50
3602;DHT22;1815;50.950;6.920;2023-04-25T13:12:53;16.30;65.20
3602;DHT22;1815;50.950;6.920;2023-04-25T13:15:19;16.20;66.30
3602;DHT22;1815;50.950;6.920;2023-04-25T13:17:44;16.10;65.70
3602;DHT22;1815;50.950;6.920;2023-04-25T13:20:10;16.00;66.30
3602;DHT22;1815;50.950;6.920;2023-04-25T13:22:40;15.90;66.00
3602;DHT22;1815;50.950;6.920;2023-04-25T13:25:07;15.80;65.20
3602;DHT22;1815;50.950;6.920;2023-04-25T13:27:34;15.70;64.20
3602;DHT22;1815;50.950;6.920;2023-04-25T13:30:01;15.60;64.80
3602;DHT22;1815;50.950;6.920;2023-04-25T13:32:35;15.60;65.60
3602;DHT22;1815;50.950;6.920;2023-04-25T13:35:06;15.60;64.80
3602;DHT22;1815;50.950;6.920;2023-04-25T13:37:32;15.50;64.70
3602;DHT22;1815;50.950;6.920;2023-04-25T13:40:06;15.50;65.00
3602;DHT22;1815;50.950;6.920;2023-04-25T13:42:34;15.50;65.00
3602;DHT22;1815;50.950;6.920;2023-04-25T13:45:00;15.50;63.20
3602;DHT22;1815;50.950;6.920;2023-04-25T13:47:27;15.40;63.60
3602;DHT22;1815;50.950;6.920;2023-04-25T13:49:53;15.40;61.80
3602;DHT22;1815;50.950;6.920;2023-04-25T13:52:19;15.30;61.40
3602;DHT22;1815;50.950;6.920;2023-04-25T13:54:44;15.20;62.40
3602;DHT22;1815;50.950;6.920;2023-04-25T13:57:10;15.00;60.70
3602;DHT22;1815;50.950;6.920;2023-04-25T13:59:37;15.00;62.80
3602;DHT22;1815;50.950;6.920;2023-04-25T14:02:03;15.00;62.30
3602;DHT22;1815;50.950;6.920;2023-04-25T14:04:28;14.90;61.30
3602;DHT22;1815;50.950;6.920;2023-04-25T14:06:55;14.90;60.70
3602;DHT22;1815;50.950;6.920;2023-04-25T14:09:21;14.90;62.30
3602;DHT22;1815;50.950;6.920;2023-04-25T14:11:54;14.90;62.30
3602;DHT22;1815;50.950;6.920;2023-04-25T14:14:21;14.90;62.90
3602;DHT22;1815;50.950;6.920;2023-04-25T14:16:47;15.00;63.60
3602;DHT22;1815;50.950;6.920;2023-04-25T14:19:14;15.10;63.30
3602;DHT22;1815;50.950;6.920;2023-04-25T14:21:40;15.00;63.60
3602;DHT22;1815;50.950;6.920;2023-04-25T14:24:06;15.10;64.20
3602;DHT22;1815;50.950;6.920;2023-04-25T14:26:35;15.10;64.60
3602;DHT22;1815;50.950;6.920;2023-04-25T14:29:05;15.10;64.50
3602;DHT22;1815;50.950;6.920;2023-04-25T14:31:33;15.10;65.00
3602;DHT22;1815;50.950;6.920;2023-04-25T14:33:59;15.10;65.40
3602;DHT22;1815;50.950;6.920;2023-04-25T14:36:26;15.20;64.60
3602;DHT22;1815;50.950;6.920;2023-04-25T14:38:52;15.30;62.80
3602;DHT22;1815;50.950;6.920;2023-04-25T14:41:18;15.30;60.70
3602;DHT22;1815;50.950;6.920;2023-04-25T14:43:43;15.30;60.20
3602;DHT22;1815;50.950;6.920;2023-04-25T14:46:10;15.20;60.70
3602;DHT22;1815;50.950;6.920;2023-04-25T14:48:36;15.10;60.70
3602;DHT22;1815;50.950;6.920;2023-04-25T14:51:02;15.10;60.60
3602;DHT22;1815;50.950;6.920;2023-04-25T14:53:28;15.00;60.80
3602;DHT22;1815;50.950;6.920;2023-04-25T14:55:54;14.90;61.30
3602;DHT22;1815;50.950;6.920;2023-04-25T14:58:20;14.80;62.40
3602;DHT22;1815;50.950;6.920;2023-04-25T15:00:46;14.70;63.20
3602;DHT22;1815;50.950;6.920;2023-04-25T15:03:12;14.60;62.90
3602;DHT22;1815;50.950;6.920;2023-04-25T15:05:42;14.60;63.50
3602;DHT22;1815;50.950;6.920;2023-04-25T15:08:08;14.50;63.70
3602;DHT22;1815;50.950;6.920;2023-04-25T15:10:34;14.60;64.90
3602;DHT22;1815;50.950;6.920;2023-04-25T15:13:00;14.70;65.50
3602;DHT22;1815;50.950;6.920;2023-04-25T15:15:26;14.70;64.60
3602;DHT22;1815;50.950;6.920;2023-04-25T15:17:52;14.70;63.90
3602;DHT22;1815;50.950;6.920;2023-04-25T15:20:19;14.60;63.10
3602;DHT22;1815;50.950;6.920;2023-04-25T15:22:44;14.60;63.50
3602;DHT22;1815;50.950;6.920;2023-04-25T15:25:11;14.50;63.90
3602;DHT22;1815;50.950;6.920;2023-04-25T15:27:38;14.50;64.00
3602;DHT22;1815;50.950;6.920;2023-04-25T15:30:08;14.50;64.60
3602;DHT22;1815;50.950;6.920;2023-04-25T15:32:36;14.50;64.30
3602;DHT22;1815;50.950;6.920;2023-04-25T15:35:04;14.40;63.20
3602;DHT22;1815;50.950;6.920;2023-04-25T15:37:31;14.40;63.50
3602;DHT22;1815;50.950;6.920;2023-04-25T15:40:17;14.40;64.20
3602;DHT22;1815;50.950;6.920;2023-04-25T15:42:49;14.40;64.00
3602;DHT22;1815;50.950;6.920;2023-04-25T15:45:22;14.40;64.60
3602;DHT22;1815;50.950;6.920;2023-04-25T15:47:51;14.50;64.80
3602;DHT22;1815;50.950;6.920;2023-04-25T15:50:19;14.50;64.30
3602;DHT22;1815;50.950;6.920;2023-04-25T15:52:47;14.50;64.90
3602;DHT22;1815;50.950;6.920;2023-04-25T15:55:13;14.40;65.10
3602;DHT22;1815;50.950;6.920;2023-04-25T15:57:39;14.50;66.30
3602;DHT22;1815;50.950;6.920;2023-04-25T16:00:07;14.40;65.80
3602;DHT22;1815;50.950;6.920;2023-04-25T16:02:44;14.40;66.10
3602;DHT22;1815;50.950;6.920;2023-04-25T16:05:10;14.40;66.50
3602;DHT22;1815;50.950;6.920;2023-04-25T16:07:41;14.40;66.70
3602;DHT22;1815;50.950;6.920;2023-04-25T16:10:08;14.40;67.40
3602;DHT22;1815;50.950;6.920;2023-04-25T16:12:35;14.40;67.70
3602;DHT22;1815;50.950;6.920;2023-04-25T16:15:02;14.40;67.90
3602;DHT22;1815;50.950;6.920;2023-04-25T16:17:27;14.40;68.00
3602;DHT22;1815;50.950;6.920;2023-04-25T16:19:55;14.40;68.00
3602;DHT22;1815;50.950;6.920;2023-04-25T16:22:21;14.50;68.20
3602;DHT22;1815;50.950;6.920;2023-04-25T16:24:46;14.60;68.50
3602;DHT22;1815;50.950;6.920;2023-04-25T16:27:12;14.60;68.50